Time;durP1;ratioP1;P1;durP2;ratioP2;P2;SDS_P1;SDS_P2;PMS_P1;PMS_P2;Temp;Humidity;BMP_temperature;BMP_pressure;BME280_temperature;BME280_humidity;BME280_pressure;Samples;Min_cycle;Max_cycle;Signal;HPM_P1;HPM_P2
2021/09/23 00:01:07;;;;;;;;;;;;;;;17.60;100.00;99425.16;5066450;28;19924;-83
2021/09/23 00:06:04;;;;;;;;;;;;;;;17.56;100.00;99418.09;5067277;28;19932;-83
2021/09/23 00:08:31;;;;;;;;;;;;;;;17.51;100.00;99411.00;5072976;28;19925;-83
2021/09/23 00:10:58;;;;;;;;;;;;;;;16.90;100.00;99412.88;5090751;28;20003;-83
2021/09/23 00:13:27;;;;;;;;;;;;;;;17.13;100.00;99429.38;5072980;28;19981;-83
2021/09/23 00:15:54;;;;;;;;;;;;;;;16.90;100.00;99421.34;5059506;28;19924;-83
2021/09/23 00:18:28;;;;;;;;;;;;;;;16.61;100.00;99421.56;5111075;28;20378;-82
2021/09/23 00:20:56;;;;;;;;;;;;;;;17.27;100.00;99428.84;5111049;28;19935;-83
2021/09/23 00:24:41;;;;;;;;;;;;;;;17.39;100.00;99413.84;5091324;28;19966;-83
2021/09/23 00:27:12;;;;;;;;;;;;;;;17.23;100.00;99406.41;5072966;28;19960;-84
2021/09/23 00:29:41;;;;;;;;;;;;;;;17.11;100.00;99403.63;5033381;28;19928;-83
2021/09/23 00:32:08;;;;;;;;;;;;;;;17.46;100.00;99402.34;5036952;28;20339;-83
2021/09/23 00:34:36;;;;;;;;;;;;;;;17.62;100.00;99393.63;5069166;28;19978;-83
2021/09/23 00:37:03;;;;;;;;;;;;;;;17.18;100.00;99401.34;5053053;28;19928;-83
2021/09/23 00:39:30;;;;;;;;;;;;;;;17.43;100.00;99397.59;5052797;28;19936;-83
2021/09/23 00:42:03;;;;;;;;;;;;;;;17.36;100.00;99392.97;5016961;28;19932;-83
2021/09/23 00:44:30;;;;;;;;;;;;;;;17.20;100.00;99389.59;5067088;28;20330;-83
2021/09/23 00:46:57;;;;;;;;;;;;;;;17.34;100.00;99389.81;5070693;28;19931;-83
2021/09/23 00:49:25;;;;;;;;;;;;;;;17.03;100.00;99399.50;5041212;28;19968;-83
2021/09/23 00:51:52;;;;;;;;;;;;;;;17.36;100.00;99392.19;5052748;28;20280;-83
2021/09/23 00:54:19;;;;;;;;;;;;;;;17.51;100.00;99404.53;5053058;28;19932;-83
2021/09/23 00:56:46;;;;;;;;;;;;;;;17.23;100.00;99399.97;5083336;28;19970;-83
2021/09/23 00:59:14;;;;;;;;;;;;;;;17.81;100.00;99395.31;5053178;28;19929;-83
2021/09/23 01:01:47;;;;;;;;;;;;;;;17.43;100.00;99387.09;5054051;28;19974;-84
2021/09/23 01:04:17;;;;;;;;;;;;;;;17.13;100.00;99387.03;5081363;28;19932;-82
2021/09/23 01:06:48;;;;;;;;;;;;;;;17.51;100.00;99384.78;5052998;28;19933;-83
2021/09/23 01:09:15;;;;;;;;;;;;;;;17.66;100.00;99371.69;5052522;28;19925;-83
2021/09/23 01:11:43;;;;;;;;;;;;;;;17.43;100.00;99369.34;5069553;28;19944;-83
2021/09/23 01:14:11;;;;;;;;;;;;;;;17.24;100.00;99373.28;5052550;28;20006;-83
2021/09/23 01:16:46;;;;;;;;;;;;;;;17.25;100.00;99357.94;5053717;28;19924;-83
2021/09/23 01:19:33;;;;;;;;;;;;;;;17.40;100.00;99358.97;5059644;28;19936;-83
2021/09/23 01:22:02;;;;;;;;;;;;;;;17.38;100.00;99361.44;5036319;28;19925;-83
2021/09/23 01:24:49;;;;;;;;;;;;;;;17.24;100.00;99357.13;5079157;28;19925;-83
2021/09/23 01:27:17;;;;;;;;;;;;;;;17.13;100.00;99355.97;5035765;28;19925;-83
2021/09/23 01:29:45;;;;;;;;;;;;;;;17.37;100.00;99348.59;5016062;28;20410;-83
2021/09/23 01:32:16;;;;;;;;;;;;;;;17.37;100.00;99342.94;5046247;28;19979;-82
2021/09/23 01:34:44;;;;;;;;;;;;;;;16.96;100.00;99348.97;5045811;28;19929;-82
2021/09/23 01:37:11;;;;;;;;;;;;;;;17.56;100.00;99353.09;5053178;28;19925;-83
2021/09/23 01:39:46;;;;;;;;;;;;;;;17.12;100.00;99337.44;5032754;28;19924;-83
2021/09/23 01:42:23;;;;;;;;;;;;;;;17.39;100.00;99329.13;5053706;28;19925;-83
2021/09/23 01:44:51;;;;;;;;;;;;;;;17.50;100.00;99312.59;5055101;28;19931;-83
2021/09/23 01:47:19;;;;;;;;;;;;;;;17.40;100.00;99300.41;5047712;28;19925;-83
2021/09/23 01:49:57;;;;;;;;;;;;;;;17.17;100.00;99298.13;5054593;28;20347;-83
2021/09/23 01:52:30;;;;;;;;;;;;;;;17.31;100.00;99291.13;5047060;28;20382;-83
2021/09/23 01:55:12;;;;;;;;;;;;;;;17.42;100.00;99283.00;5052406;28;19925;-83
2021/09/23 01:57:41;;;;;;;;;;;;;;;17.24;100.00;99278.06;5054766;28;19978;-83
2021/09/23 02:00:08;;;;;;;;;;;;;;;17.12;100.00;99275.34;5038414;28;19925;-83
2021/09/23 02:02:46;;;;;;;;;;;;;;;17.24;100.00;99265.97;5039794;28;20023;-83
2021/09/23 02:05:34;;;;;;;;;;;;;;;17.08;100.00;99249.28;5052339;28;19929;-83
2021/09/23 02:08:01;;;;;;;;;;;;;;;17.13;100.00;99254.34;5042743;28;19925;-83
2021/09/23 02:10:28;;;;;;;;;;;;;;;17.07;100.00;99245.66;5021573;28;19932;-82
2021/09/23 02:12:55;;;;;;;;;;;;;;;17.21;100.00;99256.41;5054986;28;20309;-83
2021/09/23 02:15:26;;;;;;;;;;;;;;;17.44;100.00;99241.00;5054385;28;19928;-83
2021/09/23 02:17:53;;;;;;;;;;;;;;;17.29;100.00;99246.41;5022168;28;20335;-83
2021/09/23 02:20:21;;;;;;;;;;;;;;;17.31;100.00;99237.47;5038121;28;20011;-83
2021/09/23 02:22:50;;;;;;;;;;;;;;;17.58;100.00;99243.25;5037313;28;19931;-83
2021/09/23 02:25:22;;;;;;;;;;;;;;;17.35;100.00;99243.75;5022542;28;20376;-83
2021/09/23 02:27:49;;;;;;;;;;;;;;;17.57;100.00;99239.63;5037654;28;19925;-83
2021/09/23 02:30:16;;;;;;;;;;;;;;;17.58;100.00;99237.59;5064167;28;19925;-83
2021/09/23 02:32:44;;;;;;;;;;;;;;;17.47;100.00;99240.06;5037594;28;19974;-83
2021/09/23 02:35:11;;;;;;;;;;;;;;;17.34;100.00;99236.56;5064786;28;19925;-82
2021/09/23 02:37:38;;;;;;;;;;;;;;;17.20;100.00;99248.41;5020956;28;19933;-82
2021/09/23 02:40:07;;;;;;;;;;;;;;;17.61;100.00;99243.13;5037603;28;19947;-83
2021/09/23 02:42:35;;;;;;;;;;;;;;;17.52;100.00;99256.41;5037687;28;20372;-83
2021/09/23 02:45:03;;;;;;;;;;;;;;;17.24;100.00;99254.69;5053992;28;19925;-82
2021/09/23 02:47:30;;;;;;;;;;;;;;;17.25;100.00;99261.94;5036294;28;19928;-82
2021/09/23 02:49:57;;;;;;;;;;;;;;;17.43;100.00;99239.41;5057446;28;20399;-82
2021/09/23 02:52:24;;;;;;;;;;;;;;;17.16;100.00;99259.06;5037224;28;19935;-82
2021/09/23 02:54:53;;;;;;;;;;;;;;;17.38;100.00;99245.66;5037491;28;19925;-82
2021/09/23 02:57:20;;;;;;;;;;;;;;;17.76;100.00;99260.25;5054120;28;20012;-83
2021/09/23 02:59:47;;;;;;;;;;;;;;;17.39;100.00;99244.38;5053783;28;19990;-82
2021/09/23 03:02:14;;;;;;;;;;;;;;;17.35;100.00;99243.75;5042535;28;19928;-83
2021/09/23 03:04:41;;;;;;;;;;;;;;;17.73;100.00;99253.50;5040325;28;19924;-83
2021/09/23 03:07:09;;;;;;;;;;;;;;;17.42;100.00;99249.91;5038901;28;19925;-83
2021/09/23 03:09:36;;;;;;;;;;;;;;;17.70;100.00;99248.00;5037217;28;20642;-83
2021/09/23 03:12:03;;;;;;;;;;;;;;;17.49;100.00;99246.06;5021485;28;19925;-83
2021/09/23 03:14:30;;;;;;;;;;;;;;;17.50;100.00;99233.50;5048776;28;19929;-83
2021/09/23 03:16:57;;;;;;;;;;;;;;;17.41;100.00;99234.22;5036614;28;19925;-82
2021/09/23 03:19:26;;;;;;;;;;;;;;;17.49;100.00;99237.56;5017060;28;19929;-83
2021/09/23 03:21:54;;;;;;;;;;;;;;;17.65;100.00;99238.09;5046686;28;19932;-83
2021/09/23 03:24:22;;;;;;;;;;;;;;;17.56;100.00;99231.63;5058411;28;20007;-83
2021/09/23 03:26:49;;;;;;;;;;;;;;;17.40;100.00;99224.16;5061657;28;19932;-83
2021/09/23 03:29:16;;;;;;;;;;;;;;;17.39;100.00;99227.44;5057312;28;19924;-83
2021/09/23 03:31:44;;;;;;;;;;;;;;;17.26;100.00;99213.47;5040240;28;19924;-83
2021/09/23 03:34:11;;;;;;;;;;;;;;;17.37;100.00;99219.44;5039957;28;19924;-83
2021/09/23 03:36:38;;;;;;;;;;;;;;;17.20;100.00;99208.88;5053343;28;20012;-83
2021/09/23 03:39:06;;;;;;;;;;;;;;;17.29;100.00;99206.88;5033962;28;20020;-83
2021/09/23 03:41:33;;;;;;;;;;;;;;;17.34;100.00;99202.66;5036673;28;19925;-83
2021/09/23 03:44:01;;;;;;;;;;;;;;;17.21;100.00;99213.25;5052010;28;20320;-83
2021/09/23 03:46:28;;;;;;;;;;;;;;;17.37;100.00;99202.50;5020148;28;19929;-83
2021/09/23 03:48:56;;;;;;;;;;;;;;;17.35;100.00;99188.06;5019766;28;19928;-83
2021/09/23 03:51:23;;;;;;;;;;;;;;;17.11;100.00;99183.44;5036151;28;19925;-83
2021/09/23 03:53:50;;;;;;;;;;;;;;;17.54;100.00;99177.63;5036206;28;19929;-83
2021/09/23 03:56:18;;;;;;;;;;;;;;;17.42;100.00;99161.56;5036091;28;19932;-83
2021/09/23 03:58:46;;;;;;;;;;;;;;;17.34;100.00;99152.59;5052367;28;19940;-83
2021/09/23 04:01:16;;;;;;;;;;;;;;;17.13;100.00;99164.00;5035954;28;19932;-83
2021/09/23 04:03:47;;;;;;;;;;;;;;;17.16;100.00;99154.59;5035739;28;20368;-83
2021/09/23 04:06:15;;;;;;;;;;;;;;;17.14;100.00;99162.75;5052825;28;19928;-83
2021/09/23 04:08:42;;;;;;;;;;;;;;;17.05;100.00;99152.22;5035628;28;19931;-82
2021/09/23 04:11:15;;;;;;;;;;;;;;;17.25;100.00;99155.41;5052832;28;20265;-83
2021/09/23 04:13:43;;;;;;;;;;;;;;;17.14;100.00;99152.25;5052414;28;19929;-83
2021/09/23 04:16:10;;;;;;;;;;;;;;;17.28;100.00;99153.69;5036084;28;19932;-82
2021/09/23 04:18:37;;;;;;;;;;;;;;;17.43;100.00;99143.38;5035492;28;19932;-83
2021/09/23 04:21:04;;;;;;;;;;;;;;;17.30;100.00;99145.53;5036413;28;19929;-83
2021/09/23 04:23:31;;;;;;;;;;;;;;;17.24;100.00;99144.56;5052367;28;20352;-83
2021/09/23 04:25:58;;;;;;;;;;;;;;;17.25;100.00;99140.50;5039391;28;19931;-83
2021/09/23 04:28:25;;;;;;;;;;;;;;;17.40;100.00;99130.19;5035982;28;19936;-83
2021/09/23 04:30:56;;;;;;;;;;;;;;;17.74;100.00;99127.09;5035875;28;19929;-83
2021/09/23 04:33:29;;;;;;;;;;;;;;;17.73;100.00;99128.38;5052304;28;19932;-83
2021/09/23 04:35:57;;;;;;;;;;;;;;;17.47;100.00;99127.06;5052070;28;20418;-83
2021/09/23 04:38:26;;;;;;;;;;;;;;;17.44;100.00;99133.66;5020100;28;19925;-83
2021/09/23 04:40:54;;;;;;;;;;;;;;;17.30;100.00;99118.06;5053661;28;20442;-83
2021/09/23 04:43:21;;;;;;;;;;;;;;;17.55;100.00;99128.34;5053594;28;20008;-83
2021/09/23 04:45:49;;;;;;;;;;;;;;;17.90;100.00;99127.56;5051995;28;19932;-83
2021/09/23 04:48:16;;;;;;;;;;;;;;;17.84;100.00;99123.03;5019319;28;19924;-83
2021/09/23 04:50:46;;;;;;;;;;;;;;;17.61;100.00;99130.09;5035456;28;19982;-83
2021/09/23 04:53:14;;;;;;;;;;;;;;;17.87;100.00;99127.75;5019133;28;19929;-83
2021/09/23 04:55:41;;;;;;;;;;;;;;;17.55;100.00;99131.94;5052524;28;19925;-83
2021/09/23 04:58:08;;;;;;;;;;;;;;;17.49;100.00;99130.22;5051934;28;19968;-83
2021/09/23 05:00:35;;;;;;;;;;;;;;;17.48;100.00;99132.25;5019099;28;19929;-83
2021/09/23 05:03:05;;;;;;;;;;;;;;;17.57;100.00;99137.13;5035922;28;19978;-83
2021/09/23 05:05:32;;;;;;;;;;;;;;;17.58;100.00;99133.06;5032156;28;19925;-83
2021/09/23 05:08:02;;;;;;;;;;;;;;;17.70;100.00;99132.13;5030906;28;20103;-83
2021/09/23 05:10:29;;;;;;;;;;;;;;;17.41;100.00;99134.56;5055537;28;19994;-83
2021/09/23 05:12:57;;;;;;;;;;;;;;;17.73;100.00;99129.16;5006632;28;19960;-83
2021/09/23 05:15:24;;;;;;;;;;;;;;;17.77;100.00;99131.81;5024997;28;19931;-84
2021/09/23 05:17:51;;;;;;;;;;;;;;;17.56;100.00;99130.72;5055326;28;19967;-83
2021/09/23 05:20:19;;;;;;;;;;;;;;;17.56;100.00;99127.88;5038798;28;20287;-84
2021/09/23 05:22:46;;;;;;;;;;;;;;;17.49;100.00;99119.69;5055401;28;19960;-83
2021/09/23 05:25:13;;;;;;;;;;;;;;;17.49;100.00;99133.06;5055669;28;20300;-83
2021/09/23 05:27:40;;;;;;;;;;;;;;;17.24;100.00;99124.78;5019295;28;19987;-84
2021/09/23 05:30:09;;;;;;;;;;;;;;;17.57;100.00;99134.31;5033295;28;19931;-83
2021/09/23 05:32:36;;;;;;;;;;;;;;;17.11;100.00;99135.44;5038686;28;19928;-83
2021/09/23 05:35:03;;;;;;;;;;;;;;;17.14;100.00;99131.69;5038913;28;19925;-83
2021/09/23 05:37:31;;;;;;;;;;;;;;;17.35;100.00;99131.59;5024867;28;19929;-83
2021/09/23 05:39:58;;;;;;;;;;;;;;;17.22;100.00;99135.78;5055210;28;19931;-83
2021/09/23 05:42:25;;;;;;;;;;;;;;;16.98;100.00;99126.31;5022248;28;19932;-83
2021/09/23 05:44:52;;;;;;;;;;;;;;;17.00;100.00;99113.28;5055957;28;19925;-83
2021/09/23 05:47:19;;;;;;;;;;;;;;;17.09;100.00;99123.81;5038349;28;20014;-83
2021/09/23 05:49:46;;;;;;;;;;;;;;;17.59;100.00;99121.28;5038717;28;19952;-83
2021/09/23 05:52:16;;;;;;;;;;;;;;;16.96;100.00;99120.34;5055446;28;20047;-83
2021/09/23 05:54:46;;;;;;;;;;;;;;;17.06;100.00;99128.38;5035105;28;20277;-83
2021/09/23 05:57:20;;;;;;;;;;;;;;;17.07;100.00;99132.75;5038772;28;19947;-83
2021/09/23 05:59:47;;;;;;;;;;;;;;;17.00;100.00;99143.53;5054767;28;19974;-82
2021/09/23 06:02:15;;;;;;;;;;;;;;;16.90;100.00;99139.13;5054892;28;19924;-82
2021/09/23 06:04:42;;;;;;;;;;;;;;;17.06;100.00;99152.97;5054620;28;19963;-83
2021/09/23 06:07:10;;;;;;;;;;;;;;;17.02;100.00;99146.69;5038532;28;19931;-84
2021/09/23 06:09:37;;;;;;;;;;;;;;;16.94;100.00;99134.13;5054634;28;20273;-84
2021/09/23 06:12:04;;;;;;;;;;;;;;;17.40;100.00;99155.59;5054783;28;20288;-84
2021/09/23 06:14:32;;;;;;;;;;;;;;;16.97;100.00;99150.13;5054351;28;19924;-83
2021/09/23 06:17:00;;;;;;;;;;;;;;;17.05;100.00;99165.53;5055584;28;19924;-83
2021/09/23 06:21:39;;;;;;;;;;;;;;;17.24;100.00;99161.50;5132100;27;20435;-83
2021/09/23 06:24:06;;;;;;;;;;;;;;;17.15;100.00;99162.28;5113836;28;20388;-83
2021/09/23 06:26:34;;;;;;;;;;;;;;;17.45;100.00;99180.41;5132097;28;20353;-83
2021/09/23 06:29:01;;;;;;;;;;;;;;;17.18;100.00;99167.00;5080087;28;20373;-82
2021/09/23 06:31:28;;;;;;;;;;;;;;;17.47;100.00;99160.97;5096500;28;19928;-82
2021/09/23 06:33:55;;;;;;;;;;;;;;;17.06;100.00;99165.06;5096624;28;19924;-84
2021/09/23 06:36:22;;;;;;;;;;;;;;;17.04;100.00;99184.50;5115470;28;19970;-82
2021/09/23 06:38:50;;;;;;;;;;;;;;;17.40;100.00;99175.38;5122685;28;20310;-83
2021/09/23 06:41:17;;;;;;;;;;;;;;;17.15;100.00;99184.06;5080155;28;20450;-82
2021/09/23 06:43:45;;;;;;;;;;;;;;;17.25;100.00;99171.56;5107236;28;20290;-79
2021/09/23 06:46:13;;;;;;;;;;;;;;;17.29;100.00;99183.50;5113878;28;19923;-82
2021/09/23 06:48:40;;;;;;;;;;;;;;;17.06;100.00;99181.22;5104985;28;19931;-82
2021/09/23 06:51:07;;;;;;;;;;;;;;;17.49;100.00;99187.50;5100286;28;19924;-82
2021/09/23 06:53:35;;;;;;;;;;;;;;;17.37;100.00;99194.03;5135608;27;20947;-82
2021/09/23 06:56:02;;;;;;;;;;;;;;;17.37;100.00;99182.72;5096608;28;19924;-82
2021/09/23 06:58:29;;;;;;;;;;;;;;;17.15;100.00;99187.69;5147477;27;19924;-82
2021/09/23 07:01:15;;;;;;;;;;;;;;;17.22;100.00;99195.84;5110116;28;20277;-82
2021/09/23 07:04:02;;;;;;;;;;;;;;;17.27;100.00;99197.28;5112119;28;20307;-82
2021/09/23 07:06:47;;;;;;;;;;;;;;;17.04;100.00;99200.66;5112969;28;19930;-82
2021/09/23 07:09:23;;;;;;;;;;;;;;;17.42;100.00;99215.22;5096314;28;19924;-82
2021/09/23 07:11:51;;;;;;;;;;;;;;;17.11;100.00;99183.44;5077186;28;19947;-82
2021/09/23 07:14:18;;;;;;;;;;;;;;;17.11;100.00;99220.94;5113004;28;19930;-83
2021/09/23 07:16:45;;;;;;;;;;;;;;;17.29;100.00;99234.31;5112739;28;19924;-83
2021/09/23 07:19:13;;;;;;;;;;;;;;;17.05;100.00;99224.81;5089988;28;19924;-87
2021/09/23 07:21:51;;;;;;;;;;;;;;;17.21;100.00;99199.16;5131163;28;19931;-85
2021/09/23 07:24:18;;;;;;;;;;;;;;;16.89;100.00;99230.69;5124507;28;19930;-86
2021/09/23 07:26:45;;;;;;;;;;;;;;;17.49;100.00;99203.69;5075810;28;19924;-85
2021/09/23 07:29:15;;;;;;;;;;;;;;;17.45;100.00;99226.41;5106431;28;19931;-86
2021/09/23 07:31:42;;;;;;;;;;;;;;;17.28;100.00;99227.88;5125727;27;19946;-87
2021/09/23 07:34:10;;;;;;;;;;;;;;;17.48;100.00;99233.94;5075561;28;19973;-88
2021/09/23 07:36:38;;;;;;;;;;;;;;;17.33;100.00;99209.53;5100745;28;19989;-89
2021/09/23 07:39:07;;;;;;;;;;;;;;;17.50;100.00;99206.03;5083180;28;19924;-84
2021/09/23 07:41:37;;;;;;;;;;;;;;;17.87;100.00;99215.38;5079827;28;20330;-84
2021/09/23 07:44:08;;;;;;;;;;;;;;;17.63;100.00;99203.84;5046112;28;19924;-83
2021/09/23 07:46:36;;;;;;;;;;;;;;;17.71;100.00;99212.81;5107397;28;20405;-84
2021/09/23 07:49:04;;;;;;;;;;;;;;;17.52;100.00;99214.03;5085679;28;19931;-82
2021/09/23 07:51:32;;;;;;;;;;;;;;;17.65;100.00;99223.97;5081110;28;19927;-83
2021/09/23 07:53:59;;;;;;;;;;;;;;;18.14;100.00;99226.72;5105361;28;19924;-85
2021/09/23 07:56:27;;;;;;;;;;;;;;;18.20;100.00;99213.50;5090778;28;20508;-83
2021/09/23 07:58:54;;;;;;;;;;;;;;;18.16;100.00;99218.50;5081009;28;19924;-83
2021/09/23 08:01:22;;;;;;;;;;;;;;;18.13;100.00;99202.50;5081294;28;19930;-86
2021/09/23 08:04:02;;;;;;;;;;;;;;;18.64;100.00;99192.13;5079566;28;19971;-83
2021/09/23 08:06:57;;;;;;;;;;;;;;;18.37;100.00;99178.03;5077661;28;19970;-82
2021/09/23 08:09:25;;;;;;;;;;;;;;;18.60;100.00;99194.31;5097394;28;20379;-82
2021/09/23 08:11:52;;;;;;;;;;;;;;;18.18;100.00;99187.72;5096925;28;19962;-83
2021/09/23 08:14:25;;;;;;;;;;;;;;;18.53;100.00;99200.31;5106953;27;19930;-83
2021/09/23 08:17:13;;;;;;;;;;;;;;;18.21;100.00;99191.66;5109698;27;19925;-83
2021/09/23 08:20:00;;;;;;;;;;;;;;;18.09;100.00;99203.91;5115713;27;19967;-84
2021/09/23 08:22:48;;;;;;;;;;;;;;;18.10;100.00;99186.47;5111741;28;19930;-82
2021/09/23 08:25:15;;;;;;;;;;;;;;;18.20;100.00;99205.03;5093817;28;19947;-80
2021/09/23 08:27:42;;;;;;;;;;;;;;;18.21;100.00;99194.47;5095693;28;19930;-81
2021/09/23 08:30:10;;;;;;;;;;;;;;;18.20;100.00;99162.59;5094838;28;19931;-83
2021/09/23 08:32:37;;;;;;;;;;;;;;;18.51;100.00;99171.69;5075870;28;19924;-83
2021/09/23 08:35:06;;;;;;;;;;;;;;;18.81;100.00;99172.75;5056450;28;19924;-79
2021/09/23 08:37:36;;;;;;;;;;;;;;;19.12;100.00;99171.19;5074322;28;20462;-81
2021/09/23 08:40:09;;;;;;;;;;;;;;;18.97;100.00;99187.31;5094106;28;19931;-80
2021/09/23 08:42:40;;;;;;;;;;;;;;;19.00;100.00;99182.72;5088437;28;19931;-81
2021/09/23 08:45:08;;;;;;;;;;;;;;;19.01;100.00;99190.75;5110074;27;20369;-81
2021/09/23 08:47:35;;;;;;;;;;;;;;;18.97;100.00;99197.84;5092006;28;19923;-81
2021/09/23 08:50:03;;;;;;;;;;;;;;;18.59;100.00;99189.91;5099365;28;19931;-80
2021/09/23 08:52:31;;;;;;;;;;;;;;;19.21;100.00;99195.84;5091287;28;19931;-79
2021/09/23 08:54:58;;;;;;;;;;;;;;;18.59;100.00;99178.59;5072113;28;19958;-79
2021/09/23 08:57:25;;;;;;;;;;;;;;;18.31;100.00;99173.44;5091041;28;20607;-81
2021/09/23 08:59:52;;;;;;;;;;;;;;;18.35;100.00;99166.34;5075578;28;19924;-80
2021/09/23 09:02:22;;;;;;;;;;;;;;;17.94;100.00;99186.78;5105202;28;19923;-79
2021/09/23 09:05:18;;;;;;;;;;;;;;;18.18;100.00;99199.03;5094997;28;19927;-79
2021/09/23 09:08:14;;;;;;;;;;;;;;;18.50;100.00;99191.97;5077146;28;19935;-78
2021/09/23 09:11:02;;;;;;;;;;;;;;;18.34;100.00;99224.19;5034465;28;19929;-78
2021/09/23 09:13:36;;;;;;;;;;;;;;;17.87;100.00;99213.31;5036551;28;20011;-78
2021/09/23 09:16:06;;;;;;;;;;;;;;;17.94;100.00;99224.34;5032274;28;19960;-79
2021/09/23 09:18:34;;;;;;;;;;;;;;;17.73;100.00;99208.28;5033819;28;19932;-79
2021/09/23 09:21:03;;;;;;;;;;;;;;;18.21;100.00;99219.94;5043263;28;19932;-78
2021/09/23 09:23:36;;;;;;;;;;;;;;;17.77;100.00;99219.41;5048580;28;19958;-79
2021/09/23 09:26:03;;;;;;;;;;;;;;;17.57;100.00;99202.09;5054750;28;19936;-79
2021/09/23 09:28:31;;;;;;;;;;;;;;;17.74;100.00;99209.06;5054610;28;20019;-81
2021/09/23 09:30:59;;;;;;;;;;;;;;;17.57;100.00;99217.03;5029124;28;19924;-81
2021/09/23 09:33:41;;;;;;;;;;;;;;;18.00;100.00;99221.66;5049012;28;20457;-83
2021/09/23 09:36:28;;;;;;;;;;;;;;;17.51;100.00;99210.41;5037899;28;19928;-81
2021/09/23 09:39:00;;;;;;;;;;;;;;;17.32;100.00;99205.94;5049581;28;19929;-82
2021/09/23 09:41:29;;;;;;;;;;;;;;;17.69;100.00;99201.22;5043395;28;20022;-79
2021/09/23 09:43:58;;;;;;;;;;;;;;;17.50;100.00;99211.69;5044536;28;19997;-80
2021/09/23 09:46:36;;;;;;;;;;;;;;;17.82;100.00;99216.78;5062097;28;20019;-81
2021/09/23 09:49:03;;;;;;;;;;;;;;;17.61;100.00;99211.25;5101218;28;19931;-82
2021/09/23 09:51:35;;;;;;;;;;;;;;;17.85;100.00;99220.69;5076628;28;19931;-81
2021/09/23 09:54:04;;;;;;;;;;;;;;;17.96;100.00;99218.22;5056964;28;19927;-84
2021/09/23 09:56:35;;;;;;;;;;;;;;;18.21;100.00;99231.25;5071134;28;20353;-82
2021/09/23 09:59:14;;;;;;;;;;;;;;;18.16;100.00;99248.84;5092276;28;19923;-83
2021/09/23 10:01:54;;;;;;;;;;;;;;;18.15;100.00;99238.78;5059360;28;19967;-80
2021/09/23 10:04:22;;;;;;;;;;;;;;;18.17;100.00;99228.59;5083393;28;19931;-81
2021/09/23 10:06:57;;;;;;;;;;;;;;;18.66;100.00;99242.59;5093325;28;20390;-82
2021/09/23 10:09:26;;;;;;;;;;;;;;;18.73;100.00;99230.94;5077256;28;20341;-82
2021/09/23 10:11:54;;;;;;;;;;;;;;;18.91;100.00;99245.84;5082389;28;19924;-82
2021/09/23 10:14:23;;;;;;;;;;;;;;;19.29;100.00;99254.56;5111229;28;20074;-82
2021/09/23 10:16:50;;;;;;;;;;;;;;;19.66;100.00;99258.00;5076794;28;19946;-82
2021/09/23 10:19:20;;;;;;;;;;;;;;;18.90;100.00;99272.56;5100247;28;20848;-82
2021/09/23 10:21:48;;;;;;;;;;;;;;;18.86;100.00;99283.28;5079836;28;19947;-82
2021/09/23 10:24:16;;;;;;;;;;;;;;;18.28;100.00;99296.75;5118070;28;19924;-83
2021/09/23 10:26:46;;;;;;;;;;;;;;;17.88;100.00;99294.06;5089017;28;19935;-83
2021/09/23 10:29:14;;;;;;;;;;;;;;;18.28;100.00;99293.94;5072854;28;19978;-82
2021/09/23 10:31:44;;;;;;;;;;;;;;;18.88;100.00;99309.06;5093147;28;19923;-83
2021/09/23 10:34:13;;;;;;;;;;;;;;;19.07;100.00;99287.94;5096270;28;19924;-81
2021/09/23 10:36:42;;;;;;;;;;;;;;;18.55;100.00;99296.84;5093021;28;19923;-82
2021/09/23 10:39:16;;;;;;;;;;;;;;;18.94;100.00;99307.19;5092442;28;20318;-79
2021/09/23 10:41:44;;;;;;;;;;;;;;;18.64;100.00;99313.00;5086179;28;20374;-80
2021/09/23 10:44:13;;;;;;;;;;;;;;;18.70;100.00;99305.47;5095007;28;19950;-84
2021/09/23 10:47:02;;;;;;;;;;;;;;;18.83;100.00;99298.38;5168703;27;19976;-88
2021/09/23 10:55:32;;;;;;;;;;;;;;;18.22;100.00;99309.97;5066105;28;19923;-86
2021/09/23 11:02:44;;;;;;;;;;;;;;;18.01;100.00;99316.53;5002983;28;19933;-88
2021/09/23 11:05:12;;;;;;;;;;;;;;;18.18;100.00;99322.69;5006316;28;20377;-84
2021/09/23 11:07:43;;;;;;;;;;;;;;;18.03;100.00;99319.69;5048807;28;19925;-84
2021/09/23 11:10:13;;;;;;;;;;;;;;;18.04;100.00;99312.75;5064747;28;19925;-85
2021/09/23 11:12:43;;;;;;;;;;;;;;;18.16;100.00;99323.16;5056655;28;20015;-84
2021/09/23 11:15:13;;;;;;;;;;;;;;;18.26;100.00;99319.09;5046411;28;19925;-83
2021/09/23 11:17:44;;;;;;;;;;;;;;;17.55;100.00;99309.16;5053758;28;19929;-84
2021/09/23 11:25:00;;;;;;;;;;;;;;;18.33;100.00;99310.28;5061994;28;19920;-82
2021/09/23 11:27:27;;;;;;;;;;;;;;;18.54;100.00;99300.13;5099215;27;20306;-83
2021/09/23 11:29:57;;;;;;;;;;;;;;;18.41;100.00;99300.28;5116149;27;19923;-83
2021/09/23 11:32:25;;;;;;;;;;;;;;;18.65;100.00;99289.91;5117102;27;20014;-83
2021/09/23 11:35:01;;;;;;;;;;;;;;;18.94;100.00;99281.69;5121572;27;19931;-83
2021/09/23 11:37:33;;;;;;;;;;;;;;;18.94;100.00;99284.53;5120361;28;19924;-85
2021/09/23 11:40:57;;;;;;;;;;;;;;;18.51;100.00;99290.53;5114769;27;19924;-83
2021/09/23 11:43:29;;;;;;;;;;;;;;;18.76;100.00;99300.75;5135697;27;20412;-83
2021/09/23 11:45:59;;;;;;;;;;;;;;;18.30;100.00;99314.06;5100660;27;20301;-82
2021/09/23 11:48:30;;;;;;;;;;;;;;;18.29;100.00;99312.50;5133917;27;19930;-84
2021/09/23 11:51:05;;;;;;;;;;;;;;;17.79;100.00;99304.53;5127539;27;19924;-84
2021/09/23 11:53:39;;;;;;;;;;;;;;;17.76;100.00;99309.09;5105983;27;19927;-84
2021/09/23 11:56:31;;;;;;;;;;;;;;;17.35;100.00;99308.72;5127849;27;19923;-84
2021/09/23 11:59:36;;;;;;;;;;;;;;;17.50;100.00;99302.06;5093528;28;20465;-84
2021/09/23 12:02:05;;;;;;;;;;;;;;;17.32;100.00;99285.03;5093019;28;19924;-83
2021/09/23 12:04:34;;;;;;;;;;;;;;;17.18;100.00;99299.69;5087327;27;20684;-84
2021/09/23 12:07:03;;;;;;;;;;;;;;;17.65;100.00;99303.06;5093518;28;19923;-84
2021/09/23 12:09:57;;;;;;;;;;;;;;;17.84;100.00;99299.03;5080314;28;19924;-83
2021/09/23 12:12:29;;;;;;;;;;;;;;;17.35;100.00;99300.25;5110670;27;19927;-81
2021/09/23 12:15:08;;;;;;;;;;;;;;;17.46;100.00;99311.94;5104086;27;20363;-82
2021/09/23 12:17:51;;;;;;;;;;;;;;;17.81;100.00;99305.63;5108446;27;19924;-81
2021/09/23 12:21:03;;;;;;;;;;;;;;;18.07;100.00;99311.81;5102945;27;19924;-82
2021/09/23 12:23:51;;;;;;;;;;;;;;;18.51;100.00;99312.41;5112535;27;19938;-80
2021/09/23 12:26:45;;;;;;;;;;;;;;;18.54;100.00;99312.22;5098628;27;19934;-82
2021/09/23 12:29:20;;;;;;;;;;;;;;;18.38;100.00;99323.84;5114134;27;19924;-82
2021/09/23 12:32:02;;;;;;;;;;;;;;;18.13;100.00;99306.34;5092623;27;19924;-80
2021/09/23 12:34:29;;;;;;;;;;;;;;;18.04;100.00;99321.22;5088395;27;19931;-79
2021/09/23 12:37:01;;;;;;;;;;;;;;;17.69;100.00;99312.19;5101773;27;19939;-78
2021/09/23 12:40:05;;;;;;;;;;;;;;;17.62;100.00;99326.63;5108182;27;20381;-78
2021/09/23 12:42:39;;;;;;;;;;;;;;;17.77;100.00;99321.16;5051474;27;20071;-78
2021/09/23 12:45:11;;;;;;;;;;;;;;;17.60;100.00;99331.94;5110997;27;20012;-78
2021/09/23 12:47:46;;;;;;;;;;;;;;;17.19;100.00;99342.84;5105034;27;19930;-78
2021/09/23 12:54:26;;;;;;;;;;;;;;;17.37;100.00;99338.06;5051425;28;19933;-78
2021/09/23 12:57:06;;;;;;;;;;;;;;;17.68;100.00;99340.91;5019028;28;19932;-78
2021/09/23 12:59:34;;;;;;;;;;;;;;;17.55;100.00;99343.06;5021046;28;19925;-79
2021/09/23 13:02:08;;;;;;;;;;;;;;;17.67;100.00;99340.16;5036116;28;19928;-78
2021/09/23 13:04:35;;;;;;;;;;;;;;;17.21;100.00;99335.47;5035506;28;19933;-78
2021/09/23 13:07:15;;;;;;;;;;;;;;;17.62;100.00;99339.94;5036118;28;19925;-79
2021/09/23 13:09:58;;;;;;;;;;;;;;;17.43;100.00;99336.25;5018178;28;19929;-78
2021/09/23 13:12:35;;;;;;;;;;;;;;;17.25;100.00;99346.63;5035985;28;19924;-79
2021/09/23 13:15:21;;;;;;;;;;;;;;;17.82;100.00;99346.00;5035375;28;19996;-79
2021/09/23 13:17:56;;;;;;;;;;;;;;;17.45;100.00;99338.59;5018987;28;19936;-78
2021/09/23 13:20:23;;;;;;;;;;;;;;;17.46;100.00;99334.53;5051769;28;19959;-79